sensor_id;sensor_type;location;lat;lon;timestamp;temperature;humidity
64858;SHT30;51335;51.148;6.950;2023-04-25T00:00:08;4.84;92.49
64858;SHT30;51335;51.148;6.950;2023-04-25T00:00:38;4.80;92.50
64858;SHT30;51335;51.148;6.950;2023-04-25T00:01:08;4.76;92.55
64858;SHT30;51335;51.148;6.950;2023-04-25T00:01:39;4.72;92.82
64858;SHT30;51335;51.148;6.950;2023-04-25T00:02:09;4.71;92.83
64858;SHT30;51335;51.148;6.950;2023-04-25T00:02:39;4.65;92.91
64858;SHT30;51335;51.148;6.950;2023-04-25T00:03:10;4.65;93.18
64858;SHT30;51335;51.148;6.950;2023-04-25T00:03:40;4.58;93.55
64858;SHT30;51335;51.148;6.950;2023-04-25T00:04:10;4.56;93.69
64858;SHT30;51335;51.148;6.950;2023-04-25T00:04:40;4.55;93.64
64858;SHT30;51335;51.148;6.950;2023-04-25T00:05:11;4.53;93.68
64858;SHT30;51335;51.148;6.950;2023-04-25T00:05:41;4.53;93.74
64858;SHT30;51335;51.148;6.950;2023-04-25T00:06:11;4.52;93.96
64858;SHT30;51335;51.148;6.950;2023-04-25T00:06:42;4.49;93.94
64858;SHT30;51335;51.148;6.950;2023-04-25T00:07:12;4.46;94.05
64858;SHT30;51335;51.148;6.950;2023-04-25T00:07:42;4.46;94.09
64858;SHT30;51335;51.148;6.950;2023-04-25T00:08:13;4.46;94.18
64858;SHT30;51335;51.148;6.950;2023-04-25T00:08:43;4.45;94.20
64858;SHT30;51335;51.148;6.950;2023-04-25T00:09:13;4.46;94.37
64858;SHT30;51335;51.148;6.950;2023-04-25T00:09:44;4.42;94.44
64858;SHT30;51335;51.148;6.950;2023-04-25T00:10:14;4.41;94.47
64858;SHT30;51335;51.148;6.950;2023-04-25T00:10:45;4.40;94.47
64858;SHT30;51335;51.148;6.950;2023-04-25T00:11:15;4.38;94.44
64858;SHT30;51335;51.148;6.950;2023-04-25T00:11:45;4.37;94.55
64858;SHT30;51335;51.148;6.950;2023-04-25T00:12:16;4.34;94.71
64858;SHT30;51335;51.148;6.950;2023-04-25T00:12:46;4.31;94.77
64858;SHT30;51335;51.148;6.950;2023-04-25T00:13:16;4.30;94.79
64858;SHT30;51335;51.148;6.950;2023-04-25T00:13:47;4.28;94.82
64858;SHT30;51335;51.148;6.950;2023-04-25T00:14:17;4.27;94.86
64858;SHT30;51335;51.148;6.950;2023-04-25T00:14:47;4.25;94.95
64858;SHT30;51335;51.148;6.950;2023-04-25T00:15:17;4.25;94.97
64858;SHT30;51335;51.148;6.950;2023-04-25T00:15:48;4.22;95.04
64858;SHT30;51335;51.148;6.950;2023-04-25T00:16:18;4.22;95.10
64858;SHT30;51335;51.148;6.950;2023-04-25T00:16:48;4.24;95.15
64858;SHT30;51335;51.148;6.950;2023-04-25T00:17:18;4.24;95.24
64858;SHT30;51335;51.148;6.950;2023-04-25T00:17:49;4.24;95.26
64858;SHT30;51335;51.148;6.950;2023-04-25T00:18:19;4.24;95.34
64858;SHT30;51335;51.148;6.950;2023-04-25T00:18:50;4.24;95.37
64858;SHT30;51335;51.148;6.950;2023-04-25T00:19:20;4.22;95.43
64858;SHT30;51335;51.148;6.950;2023-04-25T00:19:50;4.25;95.51
64858;SHT30;51335;51.148;6.950;2023-04-25T00:20:21;4.22;95.58
64858;SHT30;51335;51.148;6.950;2023-04-25T00:20:51;4.25;95.64
64858;SHT30;51335;51.148;6.950;2023-04-25T00:21:21;4.25;95.67
64858;SHT30;51335;51.148;6.950;2023-04-25T00:21:52;4.27;95.74
64858;SHT30;51335;51.148;6.950;2023-04-25T00:22:22;4.28;95.79
64858;SHT30;51335;51.148;6.950;2023-04-25T00:22:53;4.30;95.80
64858;SHT30;51335;51.148;6.950;2023-04-25T00:23:23;4.30;95.81
64858;SHT30;51335;51.148;6.950;2023-04-25T00:23:53;4.31;95.87
64858;SHT30;51335;51.148;6.950;2023-04-25T00:24:24;4.34;95.82
64858;SHT30;51335;51.148;6.950;2023-04-25T00:24:54;4.37;95.86
64858;SHT30;51335;51.148;6.950;2023-04-25T00:25:24;4.37;95.81
64858;SHT30;51335;51.148;6.950;2023-04-25T00:25:55;4.38;95.83
64858;SHT30;51335;51.148;6.950;2023-04-25T00:26:25;4.38;95.74
64858;SHT30;51335;51.148;6.950;2023-04-25T00:26:55;4.42;95.78
64858;SHT30;51335;51.148;6.950;2023-04-25T00:27:26;4.42;95.79
64858;SHT30;51335;51.148;6.950;2023-04-25T00:27:56;4.45;95.72
64858;SHT30;51335;51.148;6.950;2023-04-25T00:28:26;4.46;95.76
64858;SHT30;51335;51.148;6.950;2023-04-25T00:28:57;4.48;95.74
64858;SHT30;51335;51.148;6.950;2023-04-25T00:29:27;4.48;95.73
64858;SHT30;51335;51.148;6.950;2023-04-25T00:29:58;4.53;95.73
64858;SHT30;51335;51.148;6.950;2023-04-25T00:30:28;4.53;95.74
64858;SHT30;51335;51.148;6.950;2023-04-25T00:30:58;4.56;95.79
64858;SHT30;51335;51.148;6.950;2023-04-25T00:31:29;4.56;95.79
64858;SHT30;51335;51.148;6.950;2023-04-25T00:31:59;4.61;95.80
64858;SHT30;51335;51.148;6.950;2023-04-25T00:32:29;4.61;95.86
64858;SHT30;51335;51.148;6.950;2023-04-25T00:32:59;4.65;95.84
64858;SHT30;51335;51.148;6.950;2023-04-25T00:33:30;4.66;95.88
64858;SHT30;51335;51.148;6.950;2023-04-25T00:34:00;4.68;95.87
64858;SHT30;51335;51.148;6.950;2023-04-25T00:34:30;4.71;95.91
64858;SHT30;51335;51.148;6.950;2023-04-25T00:35:01;4.72;95.92
64858;SHT30;51335;51.148;6.950;2023-04-25T00:35:32;4.76;95.95
64858;SHT30;51335;51.148;6.950;2023-04-25T00:36:02;4.77;95.98
64858;SHT30;51335;51.148;6.950;2023-04-25T00:36:32;4.82;96.03
64858;SHT30;51335;51.148;6.950;2023-04-25T00:37:03;4.84;96.02
64858;SHT30;51335;51.148;6.950;2023-04-25T00:37:33;4.89;96.02
64858;SHT30;51335;51.148;6.950;2023-04-25T00:38:03;4.90;96.11
64858;SHT30;51335;51.148;6.950;2023-04-25T00:38:33;4.93;96.27
64858;SHT30;51335;51.148;6.950;2023-04-25T00:39:04;4.93;96.18
64858;SHT30;51335;51.148;6.950;2023-04-25T00:39:34;4.96;96.24
64858;SHT30;51335;51.148;6.950;2023-04-25T00:40:06;4.96;96.33
64858;SHT30;51335;51.148;6.950;2023-04-25T00:40:36;5.06;96.12
64858;SHT30;51335;51.148;6.950;2023-04-25T00:41:07;5.11;95.98
64858;SHT30;51335;51.148;6.950;2023-04-25T00:41:38;5.21;95.47
64858;SHT30;51335;51.148;6.950;2023-04-25T00:42:08;5.24;94.99
64858;SHT30;51335;51.148;6.950;2023-04-25T00:42:39;5.26;94.83
64858;SHT30;51335;51.148;6.950;2023-04-25T00:43:10;5.34;94.58
64858;SHT30;51335;51.148;6.950;2023-04-25T00:43:40;5.37;94.42
64858;SHT30;51335;51.148;6.950;2023-04-25T00:44:11;5.35;94.32
64858;SHT30;51335;51.148;6.950;2023-04-25T00:44:43;5.44;94.17
64858;SHT30;51335;51.148;6.950;2023-04-25T00:45:14;5.45;93.88
64858;SHT30;51335;51.148;6.950;2023-04-25T00:45:46;5.48;93.71
64858;SHT30;51335;51.148;6.950;2023-04-25T00:46:17;5.51;93.70
64858;SHT30;51335;51.148;6.950;2023-04-25T00:46:48;5.62;92.97
64858;SHT30;51335;51.148;6.950;2023-04-25T00:47:18;5.61;92.63
64858;SHT30;51335;51.148;6.950;2023-04-25T00:47:48;5.66;92.36
64858;SHT30;51335;51.148;6.950;2023-04-25T00:48:22;5.73;92.13
64858;SHT30;51335;51.148;6.950;2023-04-25T00:48:52;5.72;92.09
64858;SHT30;51335;51.148;6.950;2023-04-25T00:49:22;5.75;92.04
64858;SHT30;51335;51.148;6.950;2023-04-25T00:49:52;5.83;91.52
64858;SHT30;51335;51.148;6.950;2023-04-25T00:50:24;5.89;91.17
64858;SHT30;51335;51.148;6.950;2023-04-25T00:50:57;5.92;91.11
64858;SHT30;51335;51.148;6.950;2023-04-25T00:51:28;5.96;90.98
64858;SHT30;51335;51.148;6.950;2023-04-25T00:51:59;5.98;90.85
64858;SHT30;51335;51.148;6.950;2023-04-25T00:52:29;6.00;90.84
64858;SHT30;51335;51.148;6.950;2023-04-25T00:53:00;5.99;90.82
64858;SHT30;51335;51.148;6.950;2023-04-25T00:53:31;6.05;90.68
64858;SHT30;51335;51.148;6.950;2023-04-25T00:54:01;6.06;90.44
64858;SHT30;51335;51.148;6.950;2023-04-25T00:54:31;6.10;90.39
64858;SHT30;51335;51.148;6.950;2023-04-25T00:55:02;6.09;90.23
64858;SHT30;51335;51.148;6.950;2023-04-25T00:55:32;6.11;90.23
64858;SHT30;51335;51.148;6.950;2023-04-25T00:56:02;6.14;90.10
64858;SHT30;51335;51.148;6.950;2023-04-25T00:56:33;6.14;90.01
64858;SHT30;51335;51.148;6.950;2023-04-25T00:57:03;6.20;89.91
64858;SHT30;51335;51.148;6.950;2023-04-25T00:57:34;6.24;89.72
64858;SHT30;51335;51.148;6.950;2023-04-25T00:58:04;6.21;89.60
64858;SHT30;51335;51.148;6.950;2023-04-25T00:58:35;6.23;89.71
64858;SHT30;51335;51.148;6.950;2023-04-25T00:59:05;6.27;89.70
64858;SHT30;51335;51.148;6.950;2023-04-25T00:59:36;6.28;89.62
64858;SHT30;51335;51.148;6.950;2023-04-25T01:00:08;6.31;89.26
64858;SHT30;51335;51.148;6.950;2023-04-25T01:00:39;6.34;89.15
64858;SHT30;51335;51.148;6.950;2023-04-25T01:01:10;6.36;89.12
64858;SHT30;51335;51.148;6.950;2023-04-25T01:01:41;6.36;89.07
64858;SHT30;51335;51.148;6.950;2023-04-25T01:02:12;6.38;88.97
64858;SHT30;51335;51.148;6.950;2023-04-25T01:02:43;6.38;88.94
64858;SHT30;51335;51.148;6.950;2023-04-25T01:03:14;6.41;88.99
64858;SHT30;51335;51.148;6.950;2023-04-25T01:03:46;6.44;88.97
64858;SHT30;51335;51.148;6.950;2023-04-25T01:04:16;6.45;88.73
64858;SHT30;51335;51.148;6.950;2023-04-25T01:04:47;6.48;88.68
64858;SHT30;51335;51.148;6.950;2023-04-25T01:05:18;6.48;88.52
64858;SHT30;51335;51.148;6.950;2023-04-25T01:05:48;6.49;88.38
64858;SHT30;51335;51.148;6.950;2023-04-25T01:06:18;6.44;88.48
64858;SHT30;51335;51.148;6.950;2023-04-25T01:06:49;6.48;88.48
64858;SHT30;51335;51.148;6.950;2023-04-25T01:07:19;6.47;88.48
64858;SHT30;51335;51.148;6.950;2023-04-25T01:07:50;6.47;88.56
64858;SHT30;51335;51.148;6.950;2023-04-25T01:08:23;6.48;88.39
64858;SHT30;51335;51.148;6.950;2023-04-25T01:08:54;6.52;88.36
64858;SHT30;51335;51.148;6.950;2023-04-25T01:09:24;6.54;88.35
64858;SHT30;51335;51.148;6.950;2023-04-25T01:09:55;6.55;88.26
64858;SHT30;51335;51.148;6.950;2023-04-25T01:10:25;6.57;88.03
64858;SHT30;51335;51.148;6.950;2023-04-25T01:10:55;6.57;88.04
64858;SHT30;51335;51.148;6.950;2023-04-25T01:11:26;6.54;88.15
64858;SHT30;51335;51.148;6.950;2023-04-25T01:11:56;6.54;88.28
64858;SHT30;51335;51.148;6.950;2023-04-25T01:12:26;6.54;88.23
64858;SHT30;51335;51.148;6.950;2023-04-25T01:12:56;6.54;88.23
64858;SHT30;51335;51.148;6.950;2023-04-25T01:13:27;6.64;87.95
64858;SHT30;51335;51.148;6.950;2023-04-25T01:13:57;6.63;87.78
64858;SHT30;51335;51.148;6.950;2023-04-25T01:14:28;6.59;87.94
64858;SHT30;51335;51.148;6.950;2023-04-25T01:14:59;6.63;87.93
64858;SHT30;51335;51.148;6.950;2023-04-25T01:15:29;6.63;87.91
64858;SHT30;51335;51.148;6.950;2023-04-25T01:16:00;6.63;87.91
64858;SHT30;51335;51.148;6.950;2023-04-25T01:16:31;6.59;87.91
64858;SHT30;51335;51.148;6.950;2023-04-25T01:17:01;6.63;88.00
64858;SHT30;51335;51.148;6.950;2023-04-25T01:17:34;6.64;88.04
64858;SHT30;51335;51.148;6.950;2023-04-25T01:18:05;6.65;87.94
64858;SHT30;51335;51.148;6.950;2023-04-25T01:18:38;6.64;87.85
64858;SHT30;51335;51.148;6.950;2023-04-25T01:19:09;6.68;87.66
64858;SHT30;51335;51.148;6.950;2023-04-25T01:19:40;6.68;87.63
64858;SHT30;51335;51.148;6.950;2023-04-25T01:20:11;6.67;87.74
64858;SHT30;51335;51.148;6.950;2023-04-25T01:20:42;6.65;87.85
64858;SHT30;51335;51.148;6.950;2023-04-25T01:21:13;6.69;87.71
64858;SHT30;51335;51.148;6.950;2023-04-25T01:21:43;6.69;87.69
64858;SHT30;51335;51.148;6.950;2023-04-25T01:22:14;6.69;87.67
64858;SHT30;51335;51.148;6.950;2023-04-25T01:22:45;6.68;87.60
64858;SHT30;51335;51.148;6.950;2023-04-25T01:23:15;6.71;87.58
64858;SHT30;51335;51.148;6.950;2023-04-25T01:23:46;6.71;87.63
64858;SHT30;51335;51.148;6.950;2023-04-25T01:24:17;6.72;87.51
64858;SHT30;51335;51.148;6.950;2023-04-25T01:24:48;6.71;87.58
64858;SHT30;51335;51.148;6.950;2023-04-25T01:25:18;6.75;87.57
64858;SHT30;51335;51.148;6.950;2023-04-25T01:25:49;6.74;87.67
64858;SHT30;51335;51.148;6.950;2023-04-25T01:26:21;6.75;87.45
64858;SHT30;51335;51.148;6.950;2023-04-25T01:26:51;6.77;87.51
64858;SHT30;51335;51.148;6.950;2023-04-25T01:27:22;6.72;87.49
64858;SHT30;51335;51.148;6.950;2023-04-25T01:27:52;6.74;87.62
64858;SHT30;51335;51.148;6.950;2023-04-25T01:28:23;6.74;87.51
64858;SHT30;51335;51.148;6.950;2023-04-25T01:28:53;6.75;87.61
64858;SHT30;51335;51.148;6.950;2023-04-25T01:29:24;6.75;87.45
64858;SHT30;51335;51.148;6.950;2023-04-25T01:29:56;6.77;87.40
64858;SHT30;51335;51.148;6.950;2023-04-25T01:30:26;6.79;87.51
64858;SHT30;51335;51.148;6.950;2023-04-25T01:30:57;6.78;87.47
64858;SHT30;51335;51.148;6.950;2023-04-25T01:31:28;6.79;87.56
64858;SHT30;51335;51.148;6.950;2023-04-25T01:31:58;6.78;87.50
64858;SHT30;51335;51.148;6.950;2023-04-25T01:32:30;6.77;87.58
64858;SHT30;51335;51.148;6.950;2023-04-25T01:33:01;6.75;87.50
64858;SHT30;51335;51.148;6.950;2023-04-25T01:33:33;6.78;87.27
64858;SHT30;51335;51.148;6.950;2023-04-25T01:34:03;6.81;87.44
64858;SHT30;51335;51.148;6.950;2023-04-25T01:34:34;6.82;87.44
64858;SHT30;51335;51.148;6.950;2023-04-25T01:35:09;6.75;87.46
64858;SHT30;51335;51.148;6.950;2023-04-25T01:35:39;6.74;87.54
64858;SHT30;51335;51.148;6.950;2023-04-25T01:36:10;6.77;87.63
64858;SHT30;51335;51.148;6.950;2023-04-25T01:36:40;6.74;87.69
64858;SHT30;51335;51.148;6.950;2023-04-25T01:37:11;6.72;87.90
64858;SHT30;51335;51.148;6.950;2023-04-25T01:37:42;6.74;87.99
64858;SHT30;51335;51.148;6.950;2023-04-25T01:38:13;6.75;87.78
64858;SHT30;51335;51.148;6.950;2023-04-25T01:38:44;6.75;87.93
64858;SHT30;51335;51.148;6.950;2023-04-25T01:39:15;6.77;87.94
64858;SHT30;51335;51.148;6.950;2023-04-25T01:39:45;6.74;87.88
64858;SHT30;51335;51.148;6.950;2023-04-25T01:40:17;6.77;88.04
64858;SHT30;51335;51.148;6.950;2023-04-25T01:40:49;6.75;88.14
64858;SHT30;51335;51.148;6.950;2023-04-25T01:41:19;6.74;87.97
64858;SHT30;51335;51.148;6.950;2023-04-25T01:41:49;6.74;87.96
64858;SHT30;51335;51.148;6.950;2023-04-25T01:42:21;6.77;87.95
64858;SHT30;51335;51.148;6.950;2023-04-25T01:42:51;6.84;87.73
64858;SHT30;51335;51.148;6.950;2023-04-25T01:43:22;6.78;87.74
64858;SHT30;51335;51.148;6.950;2023-04-25T01:43:52;6.75;87.82
64858;SHT30;51335;51.148;6.950;2023-04-25T01:44:22;6.78;87.74
64858;SHT30;51335;51.148;6.950;2023-04-25T01:44:53;6.78;87.83
64858;SHT30;51335;51.148;6.950;2023-04-25T01:45:23;6.78;87.83
64858;SHT30;51335;51.148;6.950;2023-04-25T01:45:54;6.75;87.98
64858;SHT30;51335;51.148;6.950;2023-04-25T01:46:24;6.75;87.95
64858;SHT30;51335;51.148;6.950;2023-04-25T01:46:55;6.79;87.77
64858;SHT30;51335;51.148;6.950;2023-04-25T01:47:25;6.78;87.63
64858;SHT30;51335;51.148;6.950;2023-04-25T01:47:55;6.75;87.64
64858;SHT30;51335;51.148;6.950;2023-04-25T01:48:25;6.74;87.78
64858;SHT30;51335;51.148;6.950;2023-04-25T01:48:56;6.74;87.95
64858;SHT30;51335;51.148;6.950;2023-04-25T01:49:26;6.67;87.95
64858;SHT30;51335;51.148;6.950;2023-04-25T01:49:56;6.65;88.23
64858;SHT30;51335;51.148;6.950;2023-04-25T01:50:27;6.64;88.29
64858;SHT30;51335;51.148;6.950;2023-04-25T01:50:57;6.59;88.41
64858;SHT30;51335;51.148;6.950;2023-04-25T01:51:28;6.59;88.43
64858;SHT30;51335;51.148;6.950;2023-04-25T01:51:58;6.57;88.48
64858;SHT30;51335;51.148;6.950;2023-04-25T01:52:28;6.55;88.54
64858;SHT30;51335;51.148;6.950;2023-04-25T01:52:59;6.54;88.63
64858;SHT30;51335;51.148;6.950;2023-04-25T01:53:29;6.45;88.70
64858;SHT30;51335;51.148;6.950;2023-04-25T01:54:00;6.49;88.79
64858;SHT30;51335;51.148;6.950;2023-04-25T01:54:30;6.42;89.04
64858;SHT30;51335;51.148;6.950;2023-04-25T01:55:01;6.40;89.02
64858;SHT30;51335;51.148;6.950;2023-04-25T01:55:32;6.38;89.14
64858;SHT30;51335;51.148;6.950;2023-04-25T01:56:02;6.36;89.23
64858;SHT30;51335;51.148;6.950;2023-04-25T01:56:37;6.34;89.12
64858;SHT30;51335;51.148;6.950;2023-04-25T01:57:07;6.31;89.18
64858;SHT30;51335;51.148;6.950;2023-04-25T01:57:38;6.37;89.33
64858;SHT30;51335;51.148;6.950;2023-04-25T01:58:08;6.36;89.26
64858;SHT30;51335;51.148;6.950;2023-04-25T01:58:38;6.37;89.14
64858;SHT30;51335;51.148;6.950;2023-04-25T01:59:09;6.33;89.21
64858;SHT30;51335;51.148;6.950;2023-04-25T01:59:39;6.33;89.27
64858;SHT30;51335;51.148;6.950;2023-04-25T02:00:11;6.31;89.35
64858;SHT30;51335;51.148;6.950;2023-04-25T02:00:41;6.33;89.38
64858;SHT30;51335;51.148;6.950;2023-04-25T02:01:12;6.33;89.49
64858;SHT30;51335;51.148;6.950;2023-04-25T02:01:42;6.28;89.52
64858;SHT30;51335;51.148;6.950;2023-04-25T02:02:12;6.27;89.62
64858;SHT30;51335;51.148;6.950;2023-04-25T02:02:43;6.23;89.73
64858;SHT30;51335;51.148;6.950;2023-04-25T02:03:13;6.24;89.78
64858;SHT30;51335;51.148;6.950;2023-04-25T02:03:43;6.24;89.74
64858;SHT30;51335;51.148;6.950;2023-04-25T02:04:14;6.20;89.83
64858;SHT30;51335;51.148;6.950;2023-04-25T02:04:44;6.21;89.84
64858;SHT30;51335;51.148;6.950;2023-04-25T02:05:14;6.20;89.83
64858;SHT30;51335;51.148;6.950;2023-04-25T02:05:44;6.23;89.73
64858;SHT30;51335;51.148;6.950;2023-04-25T02:06:15;6.23;89.80
64858;SHT30;51335;51.148;6.950;2023-04-25T02:06:45;6.26;89.68
64858;SHT30;51335;51.148;6.950;2023-04-25T02:07:15;6.23;89.68
64858;SHT30;51335;51.148;6.950;2023-04-25T02:07:46;6.20;89.80
64858;SHT30;51335;51.148;6.950;2023-04-25T02:08:17;6.19;89.88
64858;SHT30;51335;51.148;6.950;2023-04-25T02:08:47;6.20;89.90
64858;SHT30;51335;51.148;6.950;2023-04-25T02:09:18;6.19;89.98
64858;SHT30;51335;51.148;6.950;2023-04-25T02:09:48;6.17;89.96
64858;SHT30;51335;51.148;6.950;2023-04-25T02:10:18;6.23;90.01
64858;SHT30;51335;51.148;6.950;2023-04-25T02:10:48;6.24;89.99
64858;SHT30;51335;51.148;6.950;2023-04-25T02:11:19;6.23;89.88
64858;SHT30;51335;51.148;6.950;2023-04-25T02:11:49;6.24;89.79
64858;SHT30;51335;51.148;6.950;2023-04-25T02:12:19;6.24;89.90
64858;SHT30;51335;51.148;6.950;2023-04-25T02:12:49;6.20;90.02
64858;SHT30;51335;51.148;6.950;2023-04-25T02:13:20;6.23;89.97
64858;SHT30;51335;51.148;6.950;2023-04-25T02:13:50;6.19;90.08
64858;SHT30;51335;51.148;6.950;2023-04-25T02:14:20;6.17;90.15
64858;SHT30;51335;51.148;6.950;2023-04-25T02:14:51;6.16;90.19
64858;SHT30;51335;51.148;6.950;2023-04-25T02:15:21;6.16;90.24
64858;SHT30;51335;51.148;6.950;2023-04-25T02:15:51;6.19;90.28
64858;SHT30;51335;51.148;6.950;2023-04-25T02:16:21;6.14;90.25
64858;SHT30;51335;51.148;6.950;2023-04-25T02:16:52;6.16;90.33
64858;SHT30;51335;51.148;6.950;2023-04-25T02:17:22;6.19;90.15
64858;SHT30;51335;51.148;6.950;2023-04-25T02:17:52;6.19;90.17
64858;SHT30;51335;51.148;6.950;2023-04-25T02:18:23;6.21;90.19
64858;SHT30;51335;51.148;6.950;2023-04-25T02:18:53;6.21;90.10
64858;SHT30;51335;51.148;6.950;2023-04-25T02:19:23;6.21;90.21
64858;SHT30;51335;51.148;6.950;2023-04-25T02:19:53;6.21;90.22
64858;SHT30;51335;51.148;6.950;2023-04-25T02:20:24;6.26;90.16
64858;SHT30;51335;51.148;6.950;2023-04-25T02:20:55;6.24;89.97
64858;SHT30;51335;51.148;6.950;2023-04-25T02:21:25;6.26;90.08
64858;SHT30;51335;51.148;6.950;2023-04-25T02:21:55;6.23;90.14
64858;SHT30;51335;51.148;6.950;2023-04-25T02:22:25;6.24;90.19
64858;SHT30;51335;51.148;6.950;2023-04-25T02:22:56;6.21;90.26
64858;SHT30;51335;51.148;6.950;2023-04-25T02:23:26;6.20;90.25
64858;SHT30;51335;51.148;6.950;2023-04-25T02:23:57;6.24;90.39
64858;SHT30;51335;51.148;6.950;2023-04-25T02:24:27;6.23;90.35
64858;SHT30;51335;51.148;6.950;2023-04-25T02:24:57;6.23;90.40
64858;SHT30;51335;51.148;6.950;2023-04-25T02:25:28;6.23;90.47
64858;SHT30;51335;51.148;6.950;2023-04-25T02:25:58;6.20;90.46
64858;SHT30;51335;51.148;6.950;2023-04-25T02:26:29;6.21;90.51
64858;SHT30;51335;51.148;6.950;2023-04-25T02:26:59;6.26;90.47
64858;SHT30;51335;51.148;6.950;2023-04-25T02:27:30;6.26;90.31
64858;SHT30;51335;51.148;6.950;2023-04-25T02:28:00;6.30;90.12
64858;SHT30;51335;51.148;6.950;2023-04-25T02:28:31;6.28;90.15
64858;SHT30;51335;51.148;6.950;2023-04-25T02:29:01;6.30;90.20
64858;SHT30;51335;51.148;6.950;2023-04-25T02:29:31;6.33;90.17
64858;SHT30;51335;51.148;6.950;2023-04-25T02:30:02;6.28;90.17
64858;SHT30;51335;51.148;6.950;2023-04-25T02:30:32;6.31;90.19
64858;SHT30;51335;51.148;6.950;2023-04-25T02:31:02;6.30;90.26
64858;SHT30;51335;51.148;6.950;2023-04-25T02:31:33;6.30;90.24
64858;SHT30;51335;51.148;6.950;2023-04-25T02:32:03;6.34;90.13
64858;SHT30;51335;51.148;6.950;2023-04-25T02:32:34;6.31;90.16
64858;SHT30;51335;51.148;6.950;2023-04-25T02:33:04;6.33;90.19
64858;SHT30;51335;51.148;6.950;2023-04-25T02:33:34;6.33;90.20
64858;SHT30;51335;51.148;6.950;2023-04-25T02:34:04;6.33;90.18
64858;SHT30;51335;51.148;6.950;2023-04-25T02:34:35;6.38;90.05
64858;SHT30;51335;51.148;6.950;2023-04-25T02:35:06;6.41;90.01
64858;SHT30;51335;51.148;6.950;2023-04-25T02:35:36;6.38;89.97
64858;SHT30;51335;51.148;6.950;2023-04-25T02:36:06;6.42;89.92
64858;SHT30;51335;51.148;6.950;2023-04-25T02:36:37;6.41;89.89
64858;SHT30;51335;51.148;6.950;2023-04-25T02:37:07;6.40;89.93
64858;SHT30;51335;51.148;6.950;2023-04-25T02:37:38;6.40;90.01
64858;SHT30;51335;51.148;6.950;2023-04-25T02:38:09;6.40;89.90
64858;SHT30;51335;51.148;6.950;2023-04-25T02:38:39;6.41;89.94
64858;SHT30;51335;51.148;6.950;2023-04-25T02:39:09;6.38;90.06
64858;SHT30;51335;51.148;6.950;2023-04-25T02:39:39;6.36;90.10
64858;SHT30;51335;51.148;6.950;2023-04-25T02:40:10;6.36;90.20
64858;SHT30;51335;51.148;6.950;2023-04-25T02:40:40;6.34;90.17
64858;SHT30;51335;51.148;6.950;2023-04-25T02:41:10;6.36;90.22
64858;SHT30;51335;51.148;6.950;2023-04-25T02:41:41;6.34;90.25
64858;SHT30;51335;51.148;6.950;2023-04-25T02:42:11;6.36;90.23
64858;SHT30;51335;51.148;6.950;2023-04-25T02:42:41;6.36;90.21
64858;SHT30;51335;51.148;6.950;2023-04-25T02:43:11;6.34;90.26
64858;SHT30;51335;51.148;6.950;2023-04-25T02:43:42;6.38;89.97
64858;SHT30;51335;51.148;6.950;2023-04-25T02:44:12;6.41;89.76
64858;SHT30;51335;51.148;6.950;2023-04-25T02:44:42;6.41;89.66
64858;SHT30;51335;51.148;6.950;2023-04-25T02:45:13;6.42;89.58
64858;SHT30;51335;51.148;6.950;2023-04-25T02:45:44;6.42;89.68
64858;SHT30;51335;51.148;6.950;2023-04-25T02:46:14;6.38;89.70
64858;SHT30;51335;51.148;6.950;2023-04-25T02:46:44;6.38;89.74
64858;SHT30;51335;51.148;6.950;2023-04-25T02:47:15;6.42;89.73
64858;SHT30;51335;51.148;6.950;2023-04-25T02:47:45;6.40;89.84
64858;SHT30;51335;51.148;6.950;2023-04-25T02:48:15;6.42;89.81
64858;SHT30;51335;51.148;6.950;2023-04-25T02:48:46;6.41;89.69
64858;SHT30;51335;51.148;6.950;2023-04-25T02:49:16;6.38;89.80
64858;SHT30;51335;51.148;6.950;2023-04-25T02:49:46;6.38;89.77
64858;SHT30;51335;51.148;6.950;2023-04-25T02:50:16;6.38;89.80
64858;SHT30;51335;51.148;6.950;2023-04-25T02:50:47;6.40;89.83
64858;SHT30;51335;51.148;6.950;2023-04-25T02:51:17;6.40;89.72
64858;SHT30;51335;51.148;6.950;2023-04-25T02:51:47;6.38;89.85
64858;SHT30;51335;51.148;6.950;2023-04-25T02:52:18;6.34;89.93
64858;SHT30;51335;51.148;6.950;2023-04-25T02:52:48;6.36;89.99
64858;SHT30;51335;51.148;6.950;2023-04-25T02:53:18;6.34;90.12
64858;SHT30;51335;51.148;6.950;2023-04-25T02:53:48;6.33;90.17
64858;SHT30;51335;51.148;6.950;2023-04-25T02:54:18;6.27;90.14
64858;SHT30;51335;51.148;6.950;2023-04-25T02:54:49;6.28;90.24
64858;SHT30;51335;51.148;6.950;2023-04-25T02:55:19;6.26;90.32
64858;SHT30;51335;51.148;6.950;2023-04-25T02:55:49;6.28;90.27
64858;SHT30;51335;51.148;6.950;2023-04-25T02:56:19;6.30;90.22
64858;SHT30;51335;51.148;6.950;2023-04-25T02:56:50;6.27;90.27
64858;SHT30;51335;51.148;6.950;2023-04-25T02:57:20;6.34;90.19
64858;SHT30;51335;51.148;6.950;2023-04-25T02:57:50;6.30;90.21
64858;SHT30;51335;51.148;6.950;2023-04-25T02:58:21;6.27;90.24
64858;SHT30;51335;51.148;6.950;2023-04-25T02:58:52;6.30;90.18
64858;SHT30;51335;51.148;6.950;2023-04-25T02:59:22;6.26;90.19
64858;SHT30;51335;51.148;6.950;2023-04-25T02:59:52;6.28;90.35
64858;SHT30;51335;51.148;6.950;2023-04-25T03:00:22;6.28;90.25
64858;SHT30;51335;51.148;6.950;2023-04-25T03:00:53;6.24;90.23
64858;SHT30;51335;51.148;6.950;2023-04-25T03:01:23;6.26;90.50
64858;SHT30;51335;51.148;6.950;2023-04-25T03:01:54;6.27;90.44
64858;SHT30;51335;51.148;6.950;2023-04-25T03:02:24;6.26;90.39
64858;SHT30;51335;51.148;6.950;2023-04-25T03:02:54;6.28;90.22
64858;SHT30;51335;51.148;6.950;2023-04-25T03:03:25;6.26;90.19
64858;SHT30;51335;51.148;6.950;2023-04-25T03:03:55;6.30;90.13
64858;SHT30;51335;51.148;6.950;2023-04-25T03:04:25;6.28;90.12
64858;SHT30;51335;51.148;6.950;2023-04-25T03:04:55;6.28;90.16
64858;SHT30;51335;51.148;6.950;2023-04-25T03:05:26;6.27;90.16
64858;SHT30;51335;51.148;6.950;2023-04-25T03:05:56;6.27;90.24
64858;SHT30;51335;51.148;6.950;2023-04-25T03:06:26;6.28;90.07
64858;SHT30;51335;51.148;6.950;2023-04-25T03:06:56;6.27;89.98
64858;SHT30;51335;51.148;6.950;2023-04-25T03:07:27;6.30;90.00
64858;SHT30;51335;51.148;6.950;2023-04-25T03:07:57;6.27;90.05
64858;SHT30;51335;51.148;6.950;2023-04-25T03:08:27;6.26;90.00
64858;SHT30;51335;51.148;6.950;2023-04-25T03:08:57;6.26;90.08
64858;SHT30;51335;51.148;6.950;2023-04-25T03:09:28;6.26;90.13
64858;SHT30;51335;51.148;6.950;2023-04-25T03:09:58;6.26;90.19
64858;SHT30;51335;51.148;6.950;2023-04-25T03:10:28;6.26;90.25
64858;SHT30;51335;51.148;6.950;2023-04-25T03:10:58;6.24;90.19
64858;SHT30;51335;51.148;6.950;2023-04-25T03:11:29;6.24;90.11
64858;SHT30;51335;51.148;6.950;2023-04-25T03:11:59;6.24;89.73
64858;SHT30;51335;51.148;6.950;2023-04-25T03:12:29;6.24;89.73
64858;SHT30;51335;51.148;6.950;2023-04-25T03:12:59;6.27;89.70
64858;SHT30;51335;51.148;6.950;2023-04-25T03:13:30;6.28;89.61
64858;SHT30;51335;51.148;6.950;2023-04-25T03:14:00;6.28;89.59
64858;SHT30;51335;51.148;6.950;2023-04-25T03:14:30;6.27;89.55
64858;SHT30;51335;51.148;6.950;2023-04-25T03:15:01;6.26;89.67
64858;SHT30;51335;51.148;6.950;2023-04-25T03:15:31;6.26;89.70